Latest Weather Observations for Red Rocks Point

IDW60801

Issued at 10:23 am WST Monday 27 January 2020 (issued every 10 minutes, with the page automatically refreshed every 10 minutes)

About weather observations | Map of weather stations | Latest weather observations for WA | Other Formats
Station Details ID: 011053 Name: RED ROCKS POINT Lat: -32.20 Lon: 127.53 Height: 3.1 m
Data from the previous 72 hours. | See also: Recent months at Red Rocks Point
Date/Time
WST
Temp
°C
App
Temp
°C
Dew
Point
°C
Rel
Hum
%
Delta-T
°C
Wind Press
QNH
hPa
Press
MSL
hPa
Rain since
9am
mm
Dir  Spd
km/h
Gust
km/h
Spd
kts
Gust
kts
27/10:00am 24.6 23.1 18.5 69 3.9 ESE 24 28 13 15 1017.6 1017.6 0.0
27/09:30am 24.6 23.4 18.5 69 3.9 ESE 22 24 12 13 1017.6 1017.6 0.0
27/09:00am 24.1 23.2 18.3 70 3.6 ESE 20 24 11 13 1017.5 1017.5 0.0
27/08:30am 24.1 23.3 18.5 71 3.5 ESE 20 24 11 13 1017.5 1017.5 0.0
27/08:00am 23.0 22.2 17.9 73 3.2 E 19 20 10 11 1017.4 1017.4 0.0
27/07:30am 22.5 21.5 17.6 74 3.0 ENE 19 24 10 13 1017.4 1017.4 0.0
27/07:00am 22.2 21.1 17.3 74 3.0 ENE 19 22 10 12 1017.6 1017.6 0.0
27/06:30am 21.2 20.4 17.2 78 2.4 NE 17 26 9 14 1017.2 1017.2 0.0
27/06:00am 19.7 19.1 16.7 83 1.8 NNE 15 20 8 11 1017.1 1017.1 0.0
27/05:30am 18.5 18.1 16.3 87 1.3 NNE 13 19 7 10 1016.7 1016.7 0.0
27/05:00am 17.7 17.1 15.7 88 1.2 NNE 13 17 7 9 1016.3 1016.3 0.0
27/04:30am 17.9 17.3 15.7 87 1.3 NNE 13 19 7 10 1016.1 1016.1 0.0
27/04:00am 18.1 17.6 15.9 87 1.3 NE 13 17 7 9 1016.1 1016.1 0.0
27/03:30am 18.1 17.2 15.9 87 1.3 NE 15 20 8 11 1015.9 1015.9 0.0
27/03:00am 18.2 17.4 16.0 87 1.3 NNE 15 19 8 10 1015.7 1015.7 0.0
27/02:30am 18.4 17.6 16.0 86 1.4 NE 15 20 8 11 1015.6 1015.6 0.0
27/02:00am 18.5 17.6 15.9 85 1.5 NE 15 20 8 11 1015.6 1015.6 0.0
27/01:30am 18.8 18.0 16.0 84 1.7 NE 15 20 8 11 1015.9 1015.9 0.0
27/01:00am 19.0 17.8 16.2 84 1.7 NE 17 19 9 10 1015.9 1015.9 0.0
27/12:30am 19.1 18.3 16.1 83 1.8 NE 15 20 8 11 1015.8 1015.8 0.0
27/12:00am 19.6 18.9 16.4 82 1.9 NE 15 20 8 11 1016.0 1016.0 0.0
 
Date/Time
WST
Temp
°C
App
Temp
°C
Dew
Point
°C
Rel
Hum
%
Delta-T
°C
Wind Press
QNH
hPa
Press
MSL
hPa
Rain since
9am
mm
Dir  Spd
km/h
Gust
km/h
Spd
kts
Gust
kts
26/11:30pm 20.2 19.5 16.4 79 2.3 NE 15 19 8 10 1016.1 1016.1 0.0
26/11:00pm 22.0 19.7 18.4 80 2.3 ENE 28 33 15 18 1016.4 1016.4 0.0
26/10:30pm 21.8 18.9 18.0 79 2.4 ENE 30 35 16 19 1016.5 1016.5 0.0
26/10:00pm 21.7 19.2 18.1 80 2.2 E 28 32 15 17 1016.5 1016.5 0.0
26/09:30pm 21.7 18.8 17.9 79 2.4 E 30 35 16 19 1016.5 1016.5 0.0
26/09:00pm 21.6 19.3 17.6 78 2.5 E 26 30 14 16 1016.9 1016.9 0.0
26/08:30pm 21.7 19.9 17.9 79 2.4 E 24 28 13 15 1017.1 1017.1 0.0
26/08:00pm 21.7 19.4 17.5 77 2.6 ESE 26 28 14 15 1017.1 1017.1 0.0
26/07:30pm 21.6 19.7 17.6 78 2.5 ESE 24 28 13 15 1016.8 1016.8 0.0
26/07:00pm 21.7 19.4 17.5 77 2.6 E 26 30 14 16 1016.4 1016.4 0.0
26/06:30pm 21.8 19.4 17.4 76 2.7 E 26 30 14 16 1016.2 1016.2 0.0
26/06:00pm 22.1 19.6 17.0 73 3.1 ESE 26 30 14 16 1016.2 1016.2 0.0
26/05:30pm 22.5 20.0 17.2 72 3.3 ESE 26 30 14 16 1016.0 1016.0 0.0
26/05:00pm 23.0 20.7 17.5 71 3.4 E 26 28 14 15 1015.8 1015.8 0.0
26/04:30pm 23.4 21.4 17.4 69 3.7 ESE 24 28 13 15 1015.7 1015.7 0.0
26/04:00pm 23.6 21.5 17.1 67 4.0 ESE 24 28 13 15 1015.8 1015.8 0.0
26/03:30pm 23.9 21.8 17.2 66 4.1 ESE 24 28 13 15 1015.9 1015.9 0.0
26/03:00pm 24.0 21.8 17.0 65 4.3 ESE 24 30 13 16 1015.9 1015.9 0.0
26/02:30pm 24.2 22.0 17.0 64 4.4 ESE 24 30 13 16 1016.2 1016.2 0.0
26/02:00pm 24.5 22.2 17.5 65 4.4 ESE 26 30 14 16 1016.1 1016.1 0.0
26/01:30pm 24.6 22.6 17.3 64 4.5 ESE 24 28 13 15 1016.4 1016.4 0.0
26/01:00pm 24.6 22.7 17.6 65 4.4 SE 24 28 13 15 1016.5 1016.5 0.0
26/12:30pm 24.6 22.9 17.3 64 4.5 SE 22 26 12 14 1016.8 1016.8 0.0
26/12:00pm 25.0 23.4 17.5 63 4.7 SE 22 26 12 14 1016.8 1016.8 0.0
26/11:30am 24.7 23.0 17.2 63 4.7 SE 22 26 12 14 1017.3 1017.3 0.0
26/11:00am 24.8 22.6 17.0 62 4.8 SE 24 26 13 14 1017.4 1017.4 0.0
26/10:30am 24.9 23.3 17.4 63 4.7 SE 22 26 12 14 1017.6 1017.6 0.0
26/10:00am 24.7 23.2 17.7 65 4.4 SE 22 26 12 14 1017.7 1017.7 0.0
26/09:30am 24.4 23.2 17.6 66 4.2 SE 20 22 11 12 1017.8 1017.8 0.0
26/09:00am 24.2 23.4 17.0 64 4.4 SE 17 19 9 10 1017.8 1017.8 0.0
26/08:30am 24.0 23.3 17.3 66 4.2 ESE 17 19 9 10 1017.8 1017.8 0.0
26/08:00am 23.7 23.3 17.2 67 4.0 E 15 17 8 9 1017.9 1017.9 0.0
26/07:30am 23.1 23.2 16.6 67 4.0 ENE 11 15 6 8 1018.0 1018.0 0.0
26/07:00am 22.5 22.5 16.3 68 3.8 ENE 11 13 6 7 1018.0 1018.0 0.0
26/06:30am 20.7 21.5 15.9 74 2.9 N 6 9 3 5 1018.0 1018.0 0.0
26/06:00am 18.6 18.6 15.3 81 1.9 N 9 15 5 8 1017.4 1017.4 0.0
26/05:30am 17.2 17.0 14.7 85 1.4 N 9 15 5 8 1017.0 1017.0 0.0
26/05:00am 17.3 16.7 14.6 84 1.6 N 11 13 6 7 1016.8 1016.8 0.0
26/04:30am 19.8 18.5 15.7 77 2.4 ENE 17 24 9 13 1016.6 1016.6 0.0
26/04:00am 20.6 19.2 17.0 80 2.2 E 20 24 11 13 1016.4 1016.4 0.0
26/03:30am 20.6 19.1 16.8 79 2.3 ESE 20 24 11 13 1016.4 1016.4 0.0
26/03:00am 20.5 19.0 16.7 79 2.3 E 20 24 11 13 1016.2 1016.2 0.0
26/02:30am 20.6 19.2 17.0 80 2.2 E 20 26 11 14 1016.1 1016.1 0.0
26/02:00am 20.6 19.0 17.4 82 2.0 E 22 26 12 14 1016.1 1016.1 0.0
26/01:30am 20.6 19.3 16.8 79 2.3 E 19 22 10 12 1016.0 1016.0 0.0
26/01:00am 20.5 19.3 17.1 81 2.1 E 19 22 10 12 1016.0 1016.0 0.0
26/12:30am 20.3 19.4 16.9 81 2.1 E 17 20 9 11 1016.0 1016.0 0.0
26/12:00am 20.3 18.8 16.7 80 2.2 E 20 26 11 14 1016.0 1016.0 0.0
 
Date/Time
WST
Temp
°C
App
Temp
°C
Dew
Point
°C
Rel
Hum
%
Delta-T
°C
Wind Press
QNH
hPa
Press
MSL
hPa
Rain since
9am
mm
Dir  Spd
km/h
Gust
km/h
Spd
kts
Gust
kts
25/11:30pm 20.5 19.2 17.3 82 2.0 E 20 24 11 13 1016.3 1016.3 0.0
25/11:00pm 20.9 19.4 17.7 82 2.0 ESE 22 28 12 15 1016.5 1016.5 0.0
25/10:30pm 20.8 19.5 17.2 80 2.2 ESE 20 26 11 14 1016.5 1016.5 0.0
25/10:00pm 20.5 18.6 16.7 79 2.3 E 22 26 12 14 1016.5 1016.5 0.0
25/09:30pm 20.9 18.9 17.5 81 2.1 ESE 24 28 13 15 1016.7 1016.7 0.0
25/09:00pm 20.9 18.8 17.1 79 2.3 ESE 24 28 13 15 1016.9 1016.9 0.0
25/08:30pm 21.0 19.4 17.4 80 2.2 ESE 22 26 12 14 1017.0 1017.0 0.0
25/08:00pm 20.8 19.5 17.2 80 2.2 SE 20 24 11 13 1017.3 1017.3 0.0
25/07:30pm 21.0 19.9 17.4 80 2.2 SSE 19 24 10 13 1017.3 1017.3 0.0
25/07:00pm 20.9 20.2 17.3 80 2.2 SE 17 22 9 12 1016.7 1016.7 0.0
25/06:30pm 21.0 19.8 17.4 80 2.2 SE 20 24 11 13 1016.4 1016.4 0.0
25/06:00pm 21.4 20.2 17.6 79 2.3 SE 20 26 11 14 1016.2 1016.2 0.0
25/05:30pm 21.6 20.2 17.0 75 2.8 SE 20 24 11 13 1016.1 1016.1 0.0
25/05:00pm 22.0 18.6 11.4 51 5.9 SSE 20 26 11 14 1016.0 1016.0 0.0
25/04:30pm 22.4 18.3 11.5 50 6.1 SSE 24 28 13 15 1016.0 1016.0 0.0
25/04:00pm 22.6 19.2 11.4 49 6.2 SSE 20 24 11 13 1015.8 1015.8 0.0
25/03:30pm 22.7 18.8 10.8 47 6.6 SSE 22 26 12 14 1015.8 1015.8 0.0
25/03:00pm 23.7 19.7 11.7 47 6.8 S 24 28 13 15 1015.9 1015.9 0.0
25/02:30pm 23.2 19.1 11.3 47 6.6 SSE 24 30 13 16 1016.0 1016.0 0.0
25/02:00pm 23.5 19.2 10.6 44 7.1 SSE 24 28 13 15 1016.2 1016.2 0.0
25/01:30pm 24.3 20.0 10.9 43 7.5 S 24 30 13 16 1016.4 1016.4 0.0
25/01:00pm 24.4 19.7 10.7 42 7.6 S 26 30 14 16 1016.7 1016.7 0.0
25/12:30pm 24.5 20.0 10.0 40 8.0 S 24 26 13 14 1016.7 1016.7 0.0
25/12:00pm 24.3 20.7 10.6 42 7.6 S 20 24 11 13 1016.7 1016.7 0.0
25/11:30am 24.4 22.3 15.1 56 5.6 S 20 24 11 13 1016.9 1016.9 0.0
25/11:00am 24.7 23.8 16.9 62 4.8 S 17 20 9 11 1017.2 1017.2 0.0
25/10:30am 24.0 22.7 15.8 60 5.0 S 17 20 9 11 1017.6 1017.6 0.0
25/10:00am 23.9 22.6 15.7 60 4.9 S 17 20 9 11 1017.7 1017.7 0.0
25/09:30am 23.7 23.2 16.0 62 4.7 S 13 17 7 9 1017.9 1017.9 0.0
25/09:00am 23.3 22.5 16.1 64 4.4 SSW 15 22 8 12 1018.2 1018.2 0.0
25/08:30am 22.3 21.9 15.2 64 4.2 S 11 19 6 10 1018.2 1018.2 0.0
25/08:00am 21.8 21.1 14.4 63 4.3 NW 11 17 6 9 1018.1 1018.1 0.0
25/07:30am 20.7 20.5 14.6 68 3.6 WNW 9 13 5 7 1018.3 1018.3 0.0
25/07:00am 20.1 19.7 14.2 69 3.4 NW 9 15 5 8 1018.2 1018.2 0.0
25/06:30am 19.6 19.2 14.0 70 3.2 NW 9 11 5 6 1017.8 1017.8 0.0
25/06:00am 18.9 18.1 12.9 68 3.4 NW 9 11 5 6 1017.4 1017.4 0.0
25/05:30am 18.4 17.8 12.2 67 3.4 NW 7 9 4 5 1017.2 1017.2 0.0
25/05:00am 18.2 17.5 12.0 67 3.4 NW 7 9 4 5 1017.0 1017.0 0.0
25/04:30am 18.2 17.1 12.0 67 3.4 WNW 9 11 5 6 1016.6 1016.6 0.0
25/04:00am 18.2 17.1 12.0 67 3.4 NW 9 11 5 6 1016.5 1016.5 0.0
25/03:30am 18.2 17.1 12.0 67 3.4 NW 9 11 5 6 1016.5 1016.5 0.0
25/03:00am 18.4 17.2 11.7 65 3.7 NNW 9 11 5 6 1016.4 1016.4 0.0
25/02:30am 19.1 18.9 11.9 63 4.0 E 4 11 2 6 1016.4 1016.4 0.0
25/02:00am 20.2 19.1 13.2 64 4.0 SE 11 13 6 7 1016.4 1016.4 0.0
25/01:30am 20.2 19.0 12.9 63 4.1 SE 11 13 6 7 1016.6 1016.6 0.0
25/01:00am 20.1 18.7 13.3 65 3.9 ESE 13 15 7 8 1016.8 1016.8 0.0
25/12:30am 20.1 18.8 13.6 66 3.7 SE 13 15 7 8 1016.9 1016.9 0.0
25/12:00am 20.0 18.2 13.2 65 3.9 SSE 15 20 8 11 1017.1 1017.1 0.0
 
Date/Time
WST
Temp
°C
App
Temp
°C
Dew
Point
°C
Rel
Hum
%
Delta-T
°C
Wind Press
QNH
hPa
Press
MSL
hPa
Rain since
9am
mm
Dir  Spd
km/h
Gust
km/h
Spd
kts
Gust
kts
24/11:30pm 19.9 18.1 13.4 66 3.7 SSE 15 17 8 9 1017.3 1017.3 0.0
24/11:00pm 19.8 17.8 12.6 63 4.0 SSE 15 19 8 10 1017.5 1017.5 0.0
24/10:30pm 19.6 18.2 13.5 68 3.5 SSE 13 15 7 8 1017.5 1017.5 0.0
24/10:00pm 19.4 17.9 13.1 67 3.6 S 13 17 7 9 1017.4 1017.4 0.0
24/09:30pm 19.5 17.7 13.4 68 3.5 SSE 15 17 8 9 1017.3 1017.3 0.0
24/09:00pm 19.6 17.4 13.3 67 3.6 S 17 20 9 11 1017.3 1017.3 0.0
24/08:30pm 19.9 16.7 11.1 57 4.8 S 19 20 10 11 1017.3 1017.3 0.0
24/08:00pm 19.7 16.6 10.4 55 5.0 S 17 20 9 11 1017.0 1017.0 0.0
24/07:30pm 19.7 17.5 14.5 72 3.0 S 19 24 10 13 1017.0 1017.0 0.0
24/07:00pm 19.8 17.7 14.8 73 2.9 S 19 22 10 12 1016.7 1016.7 0.0
24/06:30pm 20.3 18.2 15.1 72 3.1 S 20 24 11 13 1016.6 1016.6 0.0
24/06:00pm 20.8 18.6 14.9 69 3.5 S 20 24 11 13 1016.3 1016.3 0.0
24/05:30pm 21.3 18.8 14.2 64 4.1 S 20 24 11 13 1016.0 1016.0 0.0
24/05:00pm 21.9 19.3 14.8 64 4.2 S 22 28 12 15 1015.8 1015.8 0.0
24/04:30pm 22.4 19.6 14.3 60 4.7 SSW 22 28 12 15 1015.7 1015.7 0.0
24/04:00pm 22.5 19.5 13.6 57 5.2 SSW 22 28 12 15 1015.7 1015.7 0.0
24/03:30pm 23.4 20.0 13.6 54 5.7 SSW 24 30 13 16 1016.0 1016.0 0.0
24/03:00pm 23.5 20.1 13.7 54 5.7 S 24 32 13 17 1016.0 1016.0 0.0
24/02:30pm 23.4 19.5 13.3 53 5.8 SSW 26 32 14 17 1016.2 1016.2 0.0
24/02:00pm 23.8 20.4 13.6 52 5.9 S 24 32 13 17 1016.4 1016.4 0.0
24/01:30pm 24.4 20.8 13.0 49 6.6 SSW 24 30 13 16 1016.6 1016.6 0.0
24/01:00pm 24.0 20.4 12.9 50 6.4 SSW 24 30 13 16 1016.8 1016.8 0.0
24/12:30pm 24.6 21.6 13.8 51 6.3 SSW 22 30 12 16 1017.0 1017.0 0.0
24/12:00pm 24.4 20.8 14.2 53 6.0 SSW 26 32 14 17 1017.2 1017.2 0.0
24/11:30am 24.1 20.7 14.8 56 5.5 S 26 32 14 17 1017.4 1017.4 0.0
24/11:00am 23.9 20.2 12.8 49 6.4 SSW 24 30 13 16 1017.6 1017.6 0.0
24/10:30am 24.2 21.0 11.2 44 7.3 SSW 19 26 10 14 1017.8 1017.8 0.0

Other formats

Comma delimited format used in spreadsheet applications
http://www.bom.gov.au/fwo/IDW60801/IDW60801.94644.axf

JavaScript Object Notation format (JSON) in row-major order
http://www.bom.gov.au/fwo/IDW60801/IDW60801.94644.json

Data quality

Most of these data are generated automatically and are frequently updated. Quality checks on data are not normally performed. It is possible for incorrect values to appear. Refer to information at About Latest Weather Observations and please check the disclaimer before using these data.